ADDS METAR Data INFO
IDs: Format: Raw Decoded Include TAF

Data at: 0854 UTC 19 Jun 2018

KCBF 190835Z AUTO 14006KT 10SM FEW120 21/21 A2992 RMK AO2
KCBF 190815Z AUTO 14006KT 10SM SCT065 BKN120 21/21 A2991 RMK AO2
KCBF 190755Z AUTO 12007KT 10SM BKN065 BKN100 21/21 A2992 RMK AO2
KCBF 190735Z AUTO 10007KT 10SM FEW060 SCT100 BKN120 22/22 A2993 RMK AO2
KCBF 190715Z AUTO 14009KT 10SM FEW034 SCT060 BKN090 22/22 A2993 RMK AO2
KCBF 190655Z AUTO 14009G15KT 10SM FEW037 SCT050 BKN090 22/22 A2992 RMK AO2
KCBF 190635Z AUTO 16010KT 10SM FEW037 FEW055 SCT075 21/21 A2993 RMK AO2
KCBF 190615Z AUTO 16014G19KT 9SM -DZ FEW033 SCT050 BKN075 21/21 A2992 RMK AO2
KCBF 190555Z AUTO 17009KT 4SM -RA FEW008 SCT025 BKN034 22/22 A2995 RMK AO2 P0006
KCBF 190535Z AUTO VRB03G12KT 9SM -RA SCT008 BKN024 OVC044 22/22 A2999 RMK AO2
KCBF 190515Z AUTO VRB06KT 10SM FEW032 SCT038 BKN050 22/22 A2998 RMK AO2
KCBF 190455Z AUTO 12009KT 10SM SCT045 BKN050 21/21 A2992 RMK AO2
KCBF 190435Z AUTO 12007KT 10SM SCT046 22/22 A2995 RMK AO2
KCBF 190415Z AUTO 09008KT 10SM FEW080 21/21 A2995 RMK AO2
KCBF 190355Z AUTO 06006KT 10SM FEW080 21/21 A2996 RMK AO2
KCBF 190335Z AUTO 08005KT 10SM FEW080 21/21 A2996 RMK AO2
KCBF 190315Z AUTO 03006KT 10SM CLR 21/21 A2995 RMK AO2
KCBF 190255Z AUTO 03008KT 10SM CLR 21/21 A2995 RMK AO2
KCBF 190235Z AUTO 01009KT 10SM CLR 21/21 A2994 RMK AO2
KCBF 190215Z AUTO 33006KT 10SM CLR 21/21 A2993 RMK AO2
KCBF 190155Z AUTO 36006KT 10SM CLR 22/22 A2990 RMK AO2
KCBF 190135Z AUTO 05005KT 10SM CLR 22/22 A2991 RMK AO2
KCBF 190115Z AUTO 08007KT 10SM CLR 22/22 A2992 RMK AO2
KCBF 190055Z AUTO 06009KT 10SM FEW120 21/21 A2992 RMK AO2
KCBF 190035Z AUTO 06010KT 10SM FEW030 SCT055 SCT120 21/21 A2993 RMK AO2
KCBF 190015Z AUTO 03013G20KT 10SM FEW021 BKN029 SCT055 22/22 A2993 RMK AO2
KCBF 182355Z AUTO 35012G18KT 10SM FEW014 SCT022 OVC055 22/22 A2991 RMK AO2 P0006
KCBF 182335Z AUTO 09005G10KT 10SM SCT048 BKN055 OVC070 23/23 A2991 RMK AO2
KCBF 182315Z AUTO 12006KT 4SM -RA SCT033 BKN048 OVC100 23/23 A2989 RMK AO2
KCBF 182255Z AUTO 11004G11KT 4SM -RA SCT002 BKN034 OVC100 23/23 A2988 RMK AO2 P0144
KCBF 182235Z AUTO 16017G27KT M1/4SM +RA OVC002 22/22 A2994 RMK AO2
KCBF 182215Z AUTO 27009KT 9SM FEW002 SCT037 BKN080 23/23 A2991 RMK AO2
KCBF 182155Z AUTO 15012G21KT 040V190 2SM -RA SCT003 BKN027 OVC047 22/22 A2990 RMK AO2 P0134
KCBF 182135Z AUTO 33013G19KT 1/4SM +RA OVC003 22/22 A2992 RMK AO2
KCBF 182115Z AUTO 25021G27KT 5SM BR FEW021 BKN038 BKN055 25/24 A2994 RMK AO2
KCBF 182055Z AUTO 00000KT 10SM SCT070 32/25 A2988 RMK AO2
KCBF 182035Z AUTO 18011G19KT 10SM CLR 33/26 A2989 RMK AO2
KCBF 182015Z AUTO 20010G20KT 10SM FEW075 32/26 A2988 RMK AO2
KCBF 181955Z AUTO 17010KT 10SM FEW070 FEW080 32/27 A2989 RMK AO2
KCBF 181935Z AUTO 18012G17KT 10SM FEW035 SCT070 SCT080 32/26 A2990 RMK AO2
KCBF 181915Z AUTO 19012G17KT 10SM BKN035 BKN043 BKN070 32/26 A2992 RMK AO2
KCBF 181855Z AUTO 17012KT 10SM SCT036 SCT044 BKN090 32/26 A2992 RMK AO2
KCBF 181835Z AUTO 18011G16KT 10SM SCT039 SCT080 32/26 A2993 RMK AO2
KCBF 181815Z AUTO 19012KT 10SM CLR 32/25 A2993 RMK AO2
KCBF 181755Z AUTO 21013G18KT 10SM CLR 32/26 A2994 RMK AO2
KCBF 181735Z AUTO 22012G18KT 10SM CLR 32/26 A2994 RMK AO2
KCBF 181715Z AUTO 20009G16KT 170V240 10SM FEW030 31/26 A2994 RMK AO2
KCBF 181655Z AUTO 19009G15KT 160V220 10SM CLR 31/26 A2994 RMK AO2
KCBF 181635Z AUTO 19011KT 10SM CLR 30/26 A2995 RMK AO2
KCBF 181615Z AUTO 20014KT 10SM CLR 30/26 A2995 RMK AO2
KCBF 181555Z AUTO 21015KT 10SM CLR 29/25 A2995 RMK AO2
KCBF 181535Z AUTO 22013KT 10SM CLR 29/25 A2995 RMK AO2
KCBF 181515Z AUTO 21007G15KT 10SM CLR 29/25 A2995 RMK AO2
KCBF 181455Z AUTO 20010KT 10SM FEW070 28/25 A2995 RMK AO2
KCBF 181435Z AUTO 20009G14KT 10SM CLR 28/25 A2995 RMK AO2
KCBF 181415Z AUTO 19011KT 10SM CLR 28/25 A2996 RMK AO2
KCBF 181355Z AUTO 20009KT 10SM FEW075 FEW090 27/25 A2995 RMK AO2
KCBF 181335Z AUTO 20009KT 10SM FEW070 SCT090 27/25 A2995 RMK AO2
KCBF 181315Z AUTO 21010KT 10SM FEW070 SCT090 27/25 A2996 RMK AO2
KCBF 181255Z AUTO 18004KT 10SM CLR 26/26 A2995 RMK AO2
KCBF 181235Z AUTO 17006KT 10SM CLR 25/25 A2995 RMK AO2
KCBF 181215Z AUTO 16006KT 10SM FEW100 24/24 A2995 RMK AO2
KCBF 181155Z AUTO 17005KT 10SM FEW080 SCT095 SCT120 24/24 A2995 RMK AO2
KCBF 181135Z AUTO 16004KT 10SM BKN075 OVC085 24/24 A2995 RMK AO2
KCBF 181115Z AUTO 16006KT 10SM OVC070 23/23 A2994 RMK AO2
KCBF 181055Z AUTO 14006KT 10SM SCT075 23/23 A2994 RMK AO2
KCBF 181035Z AUTO 15004KT 10SM CLR 23/23 A2993 RMK AO2
KCBF 181015Z AUTO 17004KT 10SM CLR 24/24 A2993 RMK AO2
KCBF 180955Z AUTO 18005KT 10SM CLR 24/24 A2993 RMK AO2
KCBF 180935Z AUTO 00000KT 10SM CLR 24/24 A2992 RMK AO2
KCBF 180915Z AUTO 22006KT 10SM CLR 25/25 A2991 RMK AO2
KCBF 180855Z AUTO 21007KT 10SM CLR 25/24 A2991 RMK AO2
KCBF 180835Z AUTO 21009KT 10SM CLR 26/24 A2991 RMK AO2
KCBF 180815Z AUTO 21008KT 10SM CLR 26/24 A2991 RMK AO2
KCBF 180755Z AUTO 20009KT 10SM CLR 26/24 A2990 RMK AO2
KCBF 180735Z AUTO 20010KT 10SM CLR 26/24 A2990 RMK AO2
KCBF 180715Z AUTO 20010G15KT 10SM CLR 26/24 A2990 RMK AO2
KCBF 180655Z AUTO 10SM CLR 27/24 A2990 RMK AO2
KCBF 180635Z AUTO 19011KT 10SM CLR 27/24 A2990 RMK AO2
KCBF 180615Z AUTO 19011KT 10SM CLR 27/23 A2990 RMK AO2
KCBF 180555Z AUTO 20013G18KT 10SM CLR 27/23 A2990 RMK AO2
KCBF 180535Z AUTO 20016G21KT 10SM CLR 28/23 A2990 RMK AO2
KCBF 180515Z AUTO 19012G20KT 10SM CLR 28/23 A2989 RMK AO2
KCBF 180455Z AUTO 19014G21KT 10SM CLR 28/23 A2989 RMK AO2
KCBF 180435Z AUTO 19013G19KT 10SM CLR 28/23 A2989 RMK AO2
KCBF 180415Z AUTO 19012KT 10SM CLR 28/23 A2989 RMK AO2
KCBF 180355Z AUTO 19012G18KT 10SM CLR 29/23 A2989 RMK AO2
KCBF 180335Z AUTO 19014KT 10SM CLR 29/23 A2988 RMK AO2
KCBF 180315Z AUTO 18011G18KT 10SM CLR 29/23 A2987 RMK AO2
KCBF 180255Z AUTO 18012KT 10SM CLR 29/23 A2985 RMK AO2
KCBF 180235Z AUTO 18013KT 10SM CLR 29/24 A2984 RMK AO2
KCBF 180215Z AUTO 18015G21KT 10SM CLR 29/24 A2984 RMK AO2
KCBF 180155Z AUTO 18012KT 10SM CLR 29/24 A2984 RMK AO2
KCBF 180135Z AUTO 18013G19KT 10SM CLR 29/24 A2983 RMK AO2
KCBF 180115Z AUTO 17013KT 10SM CLR 29/25 A2983 RMK AO2
KCBF 180055Z AUTO 17011KT 10SM CLR 29/25 A2983 RMK AO2
KCBF 180035Z AUTO 17011G16KT 10SM CLR 29/26 A2983 RMK AO2
KCBF 180015Z AUTO 16013G18KT 10SM CLR 30/27 A2983 RMK AO2
KCBF 172355Z AUTO 15009KT 10SM CLR 29/29 A2984 RMK AO2
KCBF 172335Z AUTO 15009KT 10SM CLR 29/28 A2985 RMK AO2
KCBF 172315Z AUTO 16008KT 10SM CLR 28/28 A2986 RMK AO2
KCBF 172255Z AUTO 15007KT 10SM CLR 27/27 A2987 RMK AO2 P0035
KCBF 172235Z AUTO 18005KT 6SM BR FEW002 FEW042 SCT075 26/26 A2988 RMK AO2
KCBF 172215Z AUTO VRB04KT 10SM SCT075 SCT100 26/26 A2990 RMK AO2
KCBF 172155Z AUTO 08004KT 10SM CLR 25/25 A2988 RMK AO2 P0001
KCBF 172135Z AUTO 18007KT 6SM -DZ SCT055 SCT065 BKN095 25/25 A2988 RMK AO2
KCBF 172115Z AUTO 24017G24KT 9SM -RA FEW037 BKN050 BKN055 26/26 A2988 RMK AO2
KCBF 172055Z AUTO 24008G17KT 210V280 9SM BKN048 BKN060 OVC085 30/26 A2987 RMK AO2